createdAt,value
2023-07-03T00:03:28.411Z,94870.00
2023-07-03T00:04:28.378Z,94872.00
2023-07-03T00:15:37.285Z,94860.00
2023-07-03T00:17:44.531Z,94856.00
2023-07-03T01:06:14.908Z,94876.00
2023-07-03T01:11:44.469Z,94880.00
2023-07-03T01:12:33.711Z,94882.00
2023-07-03T01:13:36.083Z,94882.00
2023-07-03T01:14:33.731Z,94882.00
2023-07-03T01:15:33.812Z,94884.00
2023-07-03T01:16:34.716Z,94884.00
2023-07-03T01:17:34.714Z,94882.00
2023-07-03T01:18:33.966Z,94882.00
2023-07-03T01:19:34.133Z,94884.00
2023-07-03T01:20:33.978Z,94882.00
2023-07-03T01:21:33.959Z,94888.00
2023-07-03T01:22:33.984Z,94888.00
2023-07-03T01:38:53.225Z,94892.00
2023-07-03T01:39:52.848Z,94894.00
2023-07-03T01:40:52.623Z,94892.00
2023-07-03T02:13:28.995Z,94886.00
2023-07-03T02:23:37.474Z,94888.00
2023-07-03T02:24:38.157Z,94884.00
2023-07-03T02:25:37.279Z,94884.00
2023-07-03T02:26:37.236Z,94884.00
2023-07-03T02:27:37.390Z,94880.00
2023-07-03T02:28:38.104Z,94880.00
2023-07-03T02:29:37.199Z,94880.00
2023-07-03T02:30:37.099Z,94880.00
2023-07-03T02:31:37.394Z,94884.00
2023-07-03T04:09:39.752Z,94896.00
2023-07-03T04:10:30.720Z,94896.00
2023-07-03T04:11:30.928Z,94896.00
2023-07-03T04:12:30.142Z,94898.00
2023-07-03T04:13:29.659Z,94899.00
2023-07-03T04:14:29.724Z,94898.00
2023-07-03T04:15:29.660Z,94898.00
2023-07-03T04:16:29.812Z,94898.00
2023-07-03T04:17:29.761Z,94903.00
2023-07-03T04:18:29.711Z,94901.00
2023-07-03T04:19:29.649Z,94905.00
2023-07-03T04:20:29.700Z,94903.00
2023-07-03T04:21:29.695Z,94901.00
2023-07-03T04:22:30.798Z,94903.00
2023-07-03T04:23:29.576Z,94905.00
2023-07-03T04:24:29.588Z,94903.00
2023-07-03T04:25:29.693Z,94909.00
2023-07-03T04:26:29.684Z,94905.00
2023-07-03T04:27:29.609Z,94907.00
2023-07-03T04:28:29.597Z,94909.00
2023-07-03T04:29:29.606Z,94909.00
2023-07-03T04:30:29.597Z,94909.00
2023-07-03T04:31:29.582Z,94907.00
2023-07-03T04:32:29.731Z,94909.00
2023-07-03T04:33:29.649Z,94909.00
2023-07-03T04:34:30.259Z,94911.00
2023-07-03T04:35:30.384Z,94911.00
2023-07-03T04:36:29.572Z,94913.00
2023-07-03T04:37:29.562Z,94913.00
2023-07-03T04:38:29.680Z,94911.00
2023-07-03T04:39:29.804Z,94917.00
2023-07-03T04:40:31.029Z,94913.00
2023-07-03T04:41:29.480Z,94913.00
2023-07-03T04:42:29.517Z,94911.00
2023-07-03T04:43:29.523Z,94913.00
2023-07-03T04:44:29.533Z,94911.00
2023-07-03T04:45:29.514Z,94911.00
2023-07-03T04:46:29.570Z,94909.00
2023-07-03T04:47:29.460Z,94909.00
2023-07-03T04:48:29.508Z,94909.00
2023-07-03T04:49:29.893Z,94907.00
2023-07-03T04:50:30.267Z,94907.00
2023-07-03T04:51:29.463Z,94905.00
2023-07-03T04:52:29.584Z,94905.00
2023-07-03T04:53:29.679Z,94905.00
2023-07-03T04:54:31.250Z,94903.00
2023-07-03T04:55:29.481Z,94903.00
2023-07-03T04:56:29.483Z,94907.00
2023-07-03T04:57:29.550Z,94905.00
2023-07-03T04:58:29.654Z,94909.00
2023-07-03T04:59:29.551Z,94909.00
2023-07-03T05:00:29.628Z,94909.00
2023-07-03T05:01:29.694Z,94907.00
2023-07-03T05:02:31.868Z,94907.00
2023-07-03T05:03:29.852Z,94907.00
2023-07-03T05:04:29.667Z,94909.00
2023-07-03T05:05:29.687Z,94911.00
2023-07-03T05:54:47.565Z,94919.00
2023-07-03T05:55:47.192Z,94917.00
2023-07-03T05:56:46.964Z,94921.00
2023-07-03T05:57:46.688Z,94921.00
2023-07-03T05:58:46.875Z,94923.00
2023-07-03T06:01:06.450Z,94925.00
2023-07-03T06:02:06.361Z,94927.00
2023-07-03T06:03:07.105Z,94925.00
2023-07-03T07:31:18.999Z,94884.00
2023-07-03T07:33:39.376Z,94884.00
2023-07-03T07:34:38.782Z,94886.00
2023-07-03T07:35:38.668Z,94884.00
2023-07-03T07:36:37.891Z,94884.00
2023-07-03T07:37:38.396Z,94882.00
2023-07-03T07:38:37.887Z,94882.00
2023-07-03T07:39:37.799Z,94876.00
2023-07-03T07:40:37.895Z,94880.00
2023-07-03T07:41:38.375Z,94880.00
2023-07-03T07:42:38.423Z,94878.00
2023-07-03T07:43:37.724Z,94878.00
2023-07-03T07:44:38.853Z,94878.00
2023-07-03T07:45:38.030Z,94878.00
2023-07-03T07:46:38.030Z,94882.00
2023-07-03T07:47:37.845Z,94878.00
2023-07-03T07:48:39.018Z,94878.00
2023-07-03T07:49:38.605Z,94878.00
2023-07-03T07:50:37.785Z,94880.00
2023-07-03T07:51:37.798Z,94880.00
2023-07-03T07:52:37.691Z,94878.00
2023-07-03T07:53:38.636Z,94878.00
2023-07-03T07:54:38.390Z,94880.00
2023-07-03T07:55:38.392Z,94878.00
2023-07-03T07:56:38.651Z,94880.00
2023-07-03T07:57:38.561Z,94878.00
2023-07-03T07:58:37.808Z,94882.00
2023-07-03T07:59:37.849Z,94880.00
2023-07-03T08:00:38.471Z,94880.00
2023-07-03T08:01:37.957Z,94882.00
2023-07-03T08:02:38.033Z,94880.00
2023-07-03T08:03:37.921Z,94878.00
2023-07-03T08:45:37.037Z,94870.00
2023-07-03T08:46:37.686Z,94856.00
2023-07-03T08:47:36.954Z,94854.00
2023-07-03T08:48:37.142Z,94856.00
2023-07-03T08:49:36.855Z,94858.00
2023-07-03T08:50:38.004Z,94850.00
2023-07-03T08:51:37.066Z,94854.00
2023-07-03T08:52:36.762Z,94850.00
2023-07-03T08:53:36.698Z,94850.00
2023-07-03T08:54:36.688Z,94850.00
2023-07-03T08:55:36.842Z,94848.00
2023-07-03T08:56:39.331Z,94850.00
2023-07-03T08:57:38.648Z,94845.00
2023-07-03T08:58:37.435Z,94848.00
2023-07-03T08:59:37.230Z,94850.00
2023-07-03T09:00:36.647Z,94846.00
2023-07-03T09:01:36.812Z,94845.00
2023-07-03T09:02:36.929Z,94850.00
2023-07-03T09:03:36.720Z,94848.00
2023-07-03T09:04:36.825Z,94845.00
2023-07-03T09:05:36.635Z,94845.00
2023-07-03T09:06:36.662Z,94843.00
2023-07-03T09:07:36.883Z,94843.00
2023-07-03T09:08:37.292Z,94841.00
2023-07-03T09:09:37.701Z,94837.00
2023-07-03T09:10:36.980Z,94839.00
2023-07-03T09:11:38.098Z,94833.00
2023-07-03T09:12:36.713Z,94841.00
2023-07-03T09:13:39.133Z,94839.00
2023-07-03T09:14:38.773Z,94843.00
2023-07-03T09:15:37.140Z,94841.00
2023-07-03T09:16:37.070Z,94833.00
2023-07-03T09:17:37.068Z,94835.00
2023-07-03T23:50:54.058Z,94984.00
2023-07-03T23:51:53.736Z,94986.00
2023-07-03T23:52:53.776Z,94986.00
2023-07-03T23:53:54.668Z,94986.00
2023-07-03T23:54:53.592Z,94984.00
2023-07-03T23:55:53.502Z,94984.00
2023-07-03T23:56:53.505Z,94986.00
2023-07-03T23:57:53.549Z,94986.00
2023-07-03T23:58:53.529Z,94984.00
2023-07-03T23:59:53.513Z,94984.00
